Time;durP1;ratioP1;P1;durP2;ratioP2;P2;SDS_P1;SDS_P2;PMS_P1;PMS_P2;Temp;Humidity;BMP_temperature;BMP_pressure;BME280_temperature;BME280_humidity;BME280_pressure;Samples;Min_cycle;Max_cycle;Signal;HPM_P1;HPM_P2
2022/04/21 04:30:34;;;;;;;;;11.25;9.00;;;;;15.33;32.09;100476.59;5098169;27;45636;-74
2022/04/21 04:33:00;;;;;;;;;9.00;9.00;;;;;15.30;32.50;100484.91;5097727;27;45432;-75
2022/04/21 04:35:26;;;;;;;;;6.50;5.75;;;;;15.28;32.11;100479.63;5096457;27;45525;-75
2022/04/21 04:37:52;;;;;;;;;9.00;8.00;;;;;15.26;32.16;100486.97;5097420;27;45989;-73
2022/04/21 04:40:18;;;;;;;;;8.75;8.75;;;;;15.29;32.44;100502.97;5096986;27;45381;-75
2022/04/21 04:42:43;;;;;;;;;8.50;7.25;;;;;15.23;31.91;100491.69;5096981;27;45405;-74
2022/04/21 04:47:52;;;;;;;;;7.00;7.00;;;;;15.18;32.64;100497.44;5096995;27;45766;-75
2022/04/21 04:50:17;;;;;;;;;8.00;8.00;;;;;15.18;32.96;100508.22;5096910;27;45319;-75
2022/04/21 04:52:44;;;;;;;;;9.50;8.00;;;;;15.22;32.75;100504.38;5097232;27;45806;-75
2022/04/21 04:55:11;;;;;;;;;12.25;9.50;;;;;15.12;32.25;100493.31;5082758;27;45992;-75
2022/04/21 04:57:39;;;;;;;;;9.25;8.25;;;;;15.23;32.65;100521.41;5096591;27;45397;-75
2022/04/21 05:00:06;;;;;;;;;5.00;4.00;;;;;15.13;32.37;100511.25;5096539;27;45580;-75
2022/04/21 05:02:31;;;;;;;;;12.75;10.00;;;;;15.14;32.43;100506.72;5096901;27;45365;-74
2022/04/21 05:04:56;;;;;;;;;10.25;8.75;;;;;15.18;32.42;100505.53;5096468;27;45428;-75
2022/04/21 05:07:22;;;;;;;;;4.75;4.00;;;;;15.13;32.57;100510.41;5096834;27;45341;-74
2022/04/21 05:09:47;;;;;;;;;10.50;8.50;;;;;15.10;32.37;100506.06;5096636;27;45323;-74
2022/04/21 05:12:13;;;;;;;;;14.25;9.00;;;;;15.05;32.64;100508.22;5096687;27;45524;-79
2022/04/21 05:14:38;;;;;;;;;8.50;7.00;;;;;15.00;32.51;100504.94;5096562;27;45382;-77
2022/04/21 05:17:03;;;;;;;;;12.00;9.75;;;;;15.02;32.40;100507.56;5095915;27;46338;-76
2022/04/21 05:19:29;;;;;;;;;14.25;12.00;;;;;14.99;33.64;100497.81;5096908;27;45410;-73
2022/04/21 05:22:00;;;;;;;;;9.50;8.50;;;;;14.99;32.80;100505.03;5101424;27;45215;-71
2022/04/21 05:24:26;;;;;;;;;12.75;9.50;;;;;15.07;33.73;100522.47;5096359;27;46263;-71
2022/04/21 05:26:52;;;;;;;;;11.00;9.75;;;;;15.00;33.48;100504.94;5077557;27;48255;-71
2022/04/21 05:32:04;;;;;;;;;10.00;6.00;;;;;14.99;33.06;100514.00;5109699;27;45390;-77
2022/04/21 05:34:31;;;;;;;;;7.00;7.00;;;;;15.00;33.67;100517.56;5118805;27;45496;-74
2022/04/21 05:36:58;;;;;;;;;9.00;9.00;;;;;14.97;33.53;100505.16;5116757;27;45291;-72
2022/04/21 05:39:25;;;;;;;;;10.00;10.00;;;;;14.94;33.09;100501.81;5117163;27;45494;-73
2022/04/21 05:41:52;;;;;;;;;10.50;10.25;;;;;14.92;33.51;100501.91;5115661;27;45424;-77
2022/04/21 05:44:18;;;;;;;;;17.25;9.25;;;;;14.79;33.99;100483.97;5116311;27;45439;-75
2022/04/21 05:46:44;;;;;;;;;10.00;9.75;;;;;14.89;33.31;100502.09;5116213;27;46068;-75
2022/04/21 05:49:11;;;;;;;;;12.50;10.25;;;;;14.85;33.65;100503.28;5117166;27;45440;-74
2022/04/21 05:51:36;;;;;;;;;12.75;8.75;;;;;14.76;33.75;100498.50;5116607;27;45241;-76
2022/04/21 05:54:04;;;;;;;;;10.75;10.75;;;;;14.72;34.50;100489.75;5108384;27;45526;-75
2022/04/21 05:56:30;;;;;;;;;9.75;8.00;;;;;14.70;34.25;100491.69;5076577;27;46177;-75
2022/04/21 05:58:56;;;;;;;;;9.00;8.00;;;;;14.76;34.67;100491.28;5094508;27;45382;-74
2022/04/21 06:01:21;;;;;;;;;10.75;7.75;;;;;14.73;34.30;100480.69;5095617;27;45408;-76
2022/04/21 06:03:46;;;;;;;;;8.50;8.50;;;;;14.83;34.50;100490.84;5099171;27;45554;-76
2022/04/21 06:06:12;;;;;;;;;12.25;10.00;;;;;14.89;34.67;100490.44;5095911;27;46030;-77
2022/04/21 06:08:38;;;;;;;;;11.25;9.25;;;;;14.90;34.23;100493.03;5095967;27;45504;-75
2022/04/21 06:11:03;;;;;;;;;13.00;9.75;;;;;14.84;34.59;100484.50;5077550;27;45300;-77
2022/04/21 06:13:30;;;;;;;;;9.50;9.00;;;;;14.96;34.32;100491.78;5110991;27;45566;-73
2022/04/21 06:15:57;;;;;;;;;2.75;2.75;;;;;14.94;34.28;100483.78;5115814;27;45355;-74
2022/04/21 06:18:23;;;;;;;;;10.75;10.75;;;;;14.98;34.15;100487.13;5114710;27;45325;-75
2022/04/21 06:20:49;;;;;;;;;8.50;7.50;;;;;14.88;34.30;100461.75;5096197;27;45367;-75
2022/04/21 06:23:15;;;;;;;;;10.00;8.75;;;;;15.03;33.91;100483.16;5106846;27;45502;-75
2022/04/21 06:25:41;;;;;;;;;12.75;11.00;;;;;15.04;34.23;100492.13;5094591;27;45494;-74
2022/04/21 06:28:07;;;;;;;;;15.00;12.75;;;;;14.87;34.95;100455.47;5112931;27;45500;-73
2022/04/21 06:30:33;;;;;;;;;10.25;10.00;;;;;15.12;34.80;100493.31;5115835;27;45331;-77
2022/04/21 06:32:59;;;;;;;;;12.25;11.00;;;;;15.14;33.98;100494.06;5115035;27;45639;-75
2022/04/21 06:35:27;;;;;;;;;9.25;7.25;;;;;15.15;34.93;100481.44;5115399;27;45565;-77
2022/04/21 06:37:53;;;;;;;;;14.75;13.50;;;;;15.17;33.71;100495.69;5106881;27;45294;-77
2022/04/21 06:40:19;;;;;;;;;14.00;11.50;;;;;15.12;34.11;100492.47;5077075;27;45280;-75
2022/04/21 06:42:44;;;;;;;;;11.00;10.00;;;;;15.13;34.24;100491.50;5098593;27;45545;-73
2022/04/21 06:48:04;;;;;;;;;14.25;10.75;;;;;15.23;34.66;100492.56;5095782;27;45365;-76
2022/04/21 06:50:35;;;;;;;;;17.00;17.00;;;;;15.26;33.90;100488.78;5075767;27;45386;-77
2022/04/21 06:53:02;;;;;;;;;14.00;11.00;;;;;15.25;34.41;100481.66;5096250;27;45339;-78
2022/04/21 06:55:28;;;;;;;;;13.25;10.75;;;;;15.30;34.93;100485.78;5115041;27;45441;-76
2022/04/21 06:57:53;;;;;;;;;11.25;10.25;;;;;15.34;34.18;100484.59;5097062;27;45331;-75
2022/04/21 07:00:19;;;;;;;;;15.75;12.00;;;;;15.38;34.52;100479.84;5094719;27;45552;-77
2022/04/21 07:02:45;;;;;;;;;11.50;11.50;;;;;15.28;34.64;100466.13;5103932;27;45330;-76
2022/04/21 07:05:14;;;;;;;;;11.50;10.00;;;;;15.40;34.29;100478.75;5113913;27;45364;-76
2022/04/21 07:07:40;;;;;;;;;14.00;11.00;;;;;15.44;34.61;100482.97;5094438;27;45395;-77
2022/04/21 07:10:07;;;;;;;;;10.50;9.00;;;;;15.44;34.79;100474.88;5094243;27;45500;-76
2022/04/21 07:12:33;;;;;;;;;14.50;10.75;;;;;15.50;34.63;100485.25;5100428;27;45255;-77
2022/04/21 07:15:07;;;;;;;;;11.50;11.50;;;;;15.40;34.81;100461.66;5113196;27;45330;-76
2022/04/21 07:17:34;;;;;;;;;12.00;11.50;;;;;15.58;34.89;100479.31;5113074;27;45443;-79
2022/04/21 07:20:00;;;;;;;;;13.50;11.75;;;;;15.57;34.35;100472.19;5094718;27;45394;-78
2022/04/21 07:22:25;;;;;;;;;17.50;13.50;;;;;15.60;34.38;100468.41;5113318;27;45453;-78
2022/04/21 07:24:58;;;;;;;;;12.00;11.25;;;;;15.64;34.42;100468.09;5114953;27;45302;-77
2022/04/21 07:27:24;;;;;;;;;6.50;6.50;;;;;15.63;34.64;100455.56;5095027;27;45424;-78
2022/04/21 07:29:50;;;;;;;;;16.75;13.00;;;;;15.79;34.31;100477.81;5113168;27;45746;-76
2022/04/21 07:32:17;;;;;;;;;14.25;11.75;;;;;15.84;34.29;100474.75;5113413;27;45464;-81
2022/04/21 07:34:42;;;;;;;;;14.75;12.25;;;;;15.77;33.98;100460.84;5117068;27;46323;-76
2022/04/21 07:37:09;;;;;;;;;12.50;12.00;;;;;15.75;34.11;100456.50;5095555;27;45611;-76
2022/04/21 07:39:40;;;;;;;;;19.75;10.50;;;;;15.76;34.33;100463.63;5093692;27;45456;-77
2022/04/21 07:42:06;;;;;;;;;16.50;12.50;;;;;15.72;33.87;100454.91;5096033;27;45530;-77
2022/04/21 07:44:34;;;;;;;;;14.75;14.00;;;;;15.77;34.50;100457.25;5104139;27;46533;-78
2022/04/21 07:47:00;;;;;;;;;11.50;11.25;;;;;15.79;34.24;100460.72;5093352;27;45785;-78
2022/04/21 07:54:54;;;;;;;;;12.50;10.50;;;;;15.78;33.97;100456.28;5110919;27;45483;-78
2022/04/21 07:57:20;;;;;;;;;10.50;10.50;;;;;15.83;34.36;100454.09;5111605;27;45444;-76
2022/04/21 07:59:45;;;;;;;;;15.50;12.00;;;;;15.92;34.64;100456.16;5111898;27;46214;-77
2022/04/21 08:02:11;;;;;;;;;15.25;12.00;;;;;15.97;34.75;100455.84;5111793;27;45868;-77
2022/04/21 08:04:37;;;;;;;;;14.00;11.00;;;;;16.07;34.30;100465.00;5111399;27;45799;-76
2022/04/21 08:07:06;;;;;;;;;12.50;12.50;;;;;16.11;33.97;100461.09;5074098;27;45476;-78
2022/04/21 08:09:31;;;;;;;;;12.75;11.25;;;;;16.14;34.46;100467.16;5074004;27;46111;-76
2022/04/21 08:11:56;;;;;;;;;15.00;13.25;;;;;16.09;34.30;100453.09;5109277;27;45550;-79
2022/04/21 08:14:23;;;;;;;;;13.25;12.50;;;;;16.21;34.25;100470.25;5104938;27;45913;-80
2022/04/21 08:16:48;;;;;;;;;13.00;12.00;;;;;16.25;33.90;100456.38;5102686;27;45407;-80
2022/04/21 08:19:14;;;;;;;;;12.25;12.25;;;;;16.31;33.93;100467.75;5081410;27;45467;-80
2022/04/21 08:21:39;;;;;;;;;12.50;10.75;;;;;16.34;33.72;100467.50;5121374;27;45636;-78
2022/04/21 08:35:04;;;;;;;;;17.25;11.75;;;;;16.50;33.69;100455.41;5096203;27;45886;-80
2022/04/21 08:37:33;;;;;;;;;17.50;13.50;;;;;16.50;34.17;100441.88;5102491;27;45382;-76
2022/04/21 08:39:59;;;;;;;;;14.00;11.75;;;;;16.61;33.61;100463.63;5109819;27;45380;-78
2022/04/21 08:42:29;;;;;;;;;12.00;12.00;;;;;16.61;33.97;100447.41;5118261;27;45544;-79
2022/04/21 08:44:57;;;;;;;;;13.75;11.75;;;;;16.73;33.94;100455.56;5117792;27;46651;-78
2022/04/21 08:47:24;;;;;;;;;16.50;14.75;;;;;16.78;33.64;100465.06;5116796;27;45284;-75
2022/04/21 08:49:55;;;;;;;;;15.75;13.00;;;;;16.80;33.76;100456.81;5105436;27;45338;-78
2022/04/21 08:52:22;;;;;;;;;13.00;13.00;;;;;16.89;34.15;100459.69;5097044;27;46425;-78
2022/04/21 08:54:47;;;;;;;;;13.25;12.75;;;;;16.92;33.74;100450.50;5108312;27;46338;-76
2022/04/21 08:57:12;;;;;;;;;12.50;12.50;;;;;16.91;33.62;100448.75;5109561;27;45363;-74
2022/04/21 08:59:38;;;;;;;;;13.25;12.75;;;;;16.98;33.73;100456.28;5097675;27;45495;-74
2022/04/21 09:02:04;;;;;;;;;14.75;12.75;;;;;16.97;33.71;100446.44;5084999;27;45631;-72
2022/04/21 09:04:30;;;;;;;;;16.00;15.00;;;;;17.06;33.29;100458.41;5117232;27;46115;-75
2022/04/21 09:06:56;;;;;;;;;12.75;12.75;;;;;17.06;33.53;100457.53;5116682;27;45301;-75
2022/04/21 09:09:22;;;;;;;;;13.75;13.75;;;;;17.15;33.23;100467.66;5117504;27;45416;-74
2022/04/21 09:11:53;;;;;;;;;11.75;10.75;;;;;17.17;32.90;100454.88;5116167;27;45677;-77
2022/04/21 09:14:20;;;;;;;;;14.50;12.50;;;;;17.21;32.46;100459.91;5116566;27;46272;-72
2022/04/21 09:16:46;;;;;;;;;13.75;10.75;;;;;17.19;32.64;100442.03;5116480;27;45370;-75
2022/04/21 09:19:13;;;;;;;;;17.00;14.75;;;;;17.22;32.50;100439.97;5116974;27;45388;-72
2022/04/21 09:21:39;;;;;;;;;13.50;12.25;;;;;17.20;33.06;100430.22;5116637;27;45313;-74
2022/04/21 09:24:25;;;;;;;;;11.00;11.00;;;;;17.28;33.04;100444.03;5102112;27;45361;-75
2022/04/21 09:26:52;;;;;;;;;11.25;10.50;;;;;17.27;33.25;100447.72;5103108;27;45481;-73
2022/04/21 09:29:28;;;;;;;;;16.00;14.00;;;;;17.31;32.93;100441.09;5116767;27;45383;-74
2022/04/21 09:32:02;;;;;;;;;16.25;13.25;;;;;17.36;33.00;100442.44;5115476;27;46558;-72
2022/04/21 09:34:28;;;;;;;;;13.50;12.50;;;;;17.34;32.93;100436.31;5086150;27;47070;-76
2022/04/21 09:36:58;;;;;;;;;14.50;13.50;;;;;17.42;33.56;100432.13;5116850;27;45366;-73
2022/04/21 09:39:24;;;;;;;;;17.75;13.75;;;;;17.45;32.78;100427.31;5096003;27;45409;-75
2022/04/21 09:41:55;;;;;;;;;12.75;10.75;;;;;17.58;32.90;100438.06;5094941;27;45273;-74
2022/04/21 09:47:19;;;;;;;;;13.50;10.50;;;;;17.70;32.86;100420.81;5114719;27;45450;-75
2022/04/21 09:49:45;;;;;;;;;15.50;11.75;;;;;17.69;31.66;100414.53;5101848;27;45707;-75
2022/04/21 09:52:12;;;;;;;;;12.50;10.00;;;;;17.71;31.21;100414.41;5097186;27;45621;-74
2022/04/21 09:54:39;;;;;;;;;14.50;13.75;;;;;17.75;31.17;100415.91;5114626;27;45342;-76
2022/04/21 09:57:05;;;;;;;;;14.25;14.25;;;;;17.78;31.36;100424.63;5114324;27;45547;-75
2022/04/21 09:59:35;;;;;;;;;11.50;10.75;;;;;17.82;31.42;100429.81;5115064;27;45412;-76
2022/04/21 10:02:02;;;;;;;;;13.00;12.00;;;;;17.85;31.04;100419.59;5114273;27;45292;-77
2022/04/21 10:04:29;;;;;;;;;11.25;10.00;;;;;17.69;31.40;100400.97;5100639;27;46221;-74
2022/04/21 10:06:56;;;;;;;;;13.50;13.00;;;;;17.83;31.80;100413.44;5101118;27;45367;-75
2022/04/21 10:09:23;;;;;;;;;17.00;14.00;;;;;17.87;31.58;100412.19;5107996;27;45432;-74
2022/04/21 10:11:50;;;;;;;;;15.50;11.00;;;;;17.87;31.90;100405.91;5114632;27;45484;-74
2022/04/21 10:14:17;;;;;;;;;14.75;13.00;;;;;17.90;31.87;100405.66;5113869;27;46009;-75
2022/04/21 10:16:43;;;;;;;;;19.50;17.00;;;;;17.92;32.32;100390.13;5114907;27;45523;-77
2022/04/21 10:19:11;;;;;;;;;16.00;15.00;;;;;18.00;32.26;100391.22;5099642;27;45402;-75
2022/04/21 10:21:50;;;;;;;;;16.25;15.00;;;;;18.08;31.15;100391.44;5094387;27;45360;-76
2022/04/21 10:24:23;;;;;;;;;15.00;15.00;;;;;18.14;31.30;100390.06;5113083;27;45625;-75
2022/04/21 10:26:48;;;;;;;;;14.75;14.50;;;;;18.14;30.93;100379.22;5110125;27;45601;-73
2022/04/21 10:29:26;;;;;;;;;13.25;11.00;;;;;18.22;31.64;100370.44;5105139;27;45496;-73
2022/04/21 10:32:00;;;;;;;;;14.50;11.25;;;;;18.12;30.94;100357.63;5093662;27;45538;-77
2022/04/21 10:34:46;;;;;;;;;13.00;12.75;;;;;18.31;30.49;100365.09;5104635;27;45660;-75
2022/04/21 10:37:21;;;;;;;;;14.50;12.00;;;;;18.42;29.95;100366.91;5093794;27;45444;-76
2022/04/21 10:40:18;;;;;;;;;14.00;11.00;;;;;18.48;29.91;100371.81;5114578;27;45535;-76
2022/04/21 10:42:53;;;;;;;;;12.00;10.25;;;;;18.55;29.80;100367.59;5111884;27;45533;-74
2022/04/21 10:45:23;;;;;;;;;14.25;12.50;;;;;18.54;30.00;100355.03;5114318;27;45674;-76
2022/04/21 10:48:08;;;;;;;;;13.50;12.00;;;;;18.69;29.51;100366.47;5114151;27;45404;-76
2022/04/21 10:50:38;;;;;;;;;11.50;10.00;;;;;18.70;29.44;100349.19;5114288;27;45654;-76
2022/04/21 10:58:35;;;;;;;;;12.75;12.75;;;;;19.02;29.26;100366.28;5098377;27;45320;-76
2022/04/21 11:01:10;;;;;;;;;12.75;12.75;;;;;19.05;28.53;100359.72;5094123;27;45532;-75
2022/04/21 11:03:36;;;;;;;;;14.00;11.50;;;;;19.05;28.59;100354.28;5104471;27;45430;-75
2022/04/21 11:06:10;;;;;;;;;13.00;13.00;;;;;19.08;28.99;100357.56;5114074;27;45294;-77
2022/04/21 11:08:36;;;;;;;;;14.75;13.75;;;;;19.01;28.50;100334.66;5114157;27;45594;-74
2022/04/21 11:11:02;;;;;;;;;17.00;15.00;;;;;19.20;28.23;100351.06;5114586;27;45497;-75
2022/04/21 11:13:51;;;;;;;;;9.75;8.75;;;;;19.30;28.92;100353.00;5106286;27;45776;-75
2022/04/21 11:16:41;;;;;;;;;16.25;12.00;;;;;19.36;28.90;100338.84;5093603;27;46217;-75
2022/04/21 11:19:28;;;;;;;;;17.75;13.00;;;;;19.47;28.63;100331.50;5106070;27;45420;-74
2022/04/21 11:21:53;;;;;;;;;12.25;10.75;;;;;19.57;28.43;100340.53;5093525;27;45329;-76
2022/04/21 11:24:19;;;;;;;;;14.75;12.75;;;;;19.69;28.08;100335.84;5105015;27;45331;-75
2022/04/21 11:26:44;;;;;;;;;14.25;10.00;;;;;19.79;28.45;100320.44;5099252;27;45482;-75
2022/04/21 11:29:10;;;;;;;;;14.00;10.25;;;;;19.94;28.19;100318.16;5108931;27;45326;-74
2022/04/21 11:31:35;;;;;;;;;13.75;11.50;;;;;20.14;27.36;100316.34;5093119;27;45381;-76
2022/04/21 11:34:02;;;;;;;;;13.50;12.75;;;;;20.21;27.65;100299.28;5104815;27;45401;-74
2022/04/21 11:36:36;;;;;;;;;13.00;11.75;;;;;20.27;26.48;100306.88;5113620;27;45496;-75
2022/04/21 11:39:06;;;;;;;;;11.50;11.00;;;;;20.45;27.26;100319.81;5108378;27;45430;-75
2022/04/21 11:41:32;;;;;;;;;13.50;11.75;;;;;20.59;26.72;100312.03;5094306;27;45362;-75
2022/04/21 11:43:58;;;;;;;;;11.50;11.50;;;;;20.73;25.68;100313.47;5097991;27;45668;-74
2022/04/21 11:46:23;;;;;;;;;10.00;10.00;;;;;20.88;25.14;100314.75;5092748;27;45385;-75
2022/04/21 11:49:00;;;;;;;;;11.00;10.25;;;;;20.97;24.61;100318.44;5096626;27;45443;-74
2022/04/21 11:51:27;;;;;;;;;14.75;11.50;;;;;21.09;24.40;100314.56;5093318;27;45446;-75
2022/04/21 11:53:52;;;;;;;;;8.25;8.00;;;;;21.18;24.28;100301.94;5103900;27;45385;-75
2022/04/21 11:56:18;;;;;;;;;11.50;11.25;;;;;21.35;23.73;100312.06;5117610;27;45400;-76
2022/04/21 11:58:44;;;;;;;;;13.50;10.25;;;;;21.45;23.94;100302.81;5110387;27;45587;-77
2022/04/21 12:06:55;;;;;;;;;11.50;10.25;;;;;22.00;22.77;100294.63;5081855;27;45844;-76
2022/04/21 12:09:26;;;;;;;;;13.25;12.25;;;;;22.16;23.10;100288.47;5108704;27;45377;-76
2022/04/21 12:11:54;;;;;;;;;10.75;10.00;;;;;22.35;23.60;100282.00;5096342;27;45280;-75
2022/04/21 12:14:20;;;;;;;;;12.00;12.00;;;;;22.52;23.65;100284.72;5106584;27;45546;-75
2022/04/21 12:16:56;;;;;;;;;12.00;11.25;;;;;22.69;23.48;100277.50;5096347;27;45304;-78
2022/04/21 12:19:33;;;;;;;;;11.25;11.25;;;;;22.95;23.04;100283.88;5105388;27;45616;-76
2022/04/21 12:22:00;;;;;;;;;11.50;10.75;;;;;23.28;22.99;100281.31;5096210;27;45333;-76
2022/04/21 12:24:35;;;;;;;;;12.25;11.25;;;;;23.53;22.38;100283.19;5103349;27;45545;-74
2022/04/21 12:27:12;;;;;;;;;10.00;9.50;;;;;23.75;22.25;100278.97;5104238;27;45488;-75
2022/04/21 12:29:52;;;;;;;;;9.75;9.75;;;;;24.16;21.89;100268.13;5102415;27;45417;-75
2022/04/21 12:32:23;;;;;;;;;11.25;11.25;;;;;24.51;21.53;100271.41;5095673;27;45260;-75
2022/04/21 12:34:49;;;;;;;;;10.50;10.00;;;;;24.82;21.22;100270.72;5099950;27;45303;-75
2022/04/21 12:37:14;;;;;;;;;11.25;10.25;;;;;25.05;21.71;100263.50;5095564;27;45990;-75
2022/04/21 12:39:40;;;;;;;;;10.25;10.00;;;;;25.23;21.37;100253.19;5098401;27;45573;-75
2022/04/21 12:42:07;;;;;;;;;10.50;10.50;;;;;25.61;21.17;100265.22;5096081;27;45305;-75
2022/04/21 12:44:33;;;;;;;;;9.75;9.75;;;;;25.77;21.32;100256.06;5096766;27;45308;-76
2022/04/21 12:47:13;;;;;;;;;13.25;11.50;;;;;25.83;20.59;100262.72;5095331;27;45383;-75
2022/04/21 12:50:06;;;;;;;;;7.00;6.00;;;;;25.94;21.27;100262.31;5108168;27;45353;-76
2022/04/21 12:52:35;;;;;;;;;10.00;7.50;;;;;26.09;21.10;100254.16;5087194;27;45544;-75
2022/04/21 12:55:04;;;;;;;;;10.00;10.00;;;;;26.23;21.18;100243.22;5111108;27;45399;-76
2022/04/21 12:57:30;;;;;;;;;8.25;8.25;;;;;26.30;20.97;100238.72;5095555;27;46958;-76
2022/04/21 12:59:55;;;;;;;;;7.50;7.50;;;;;26.51;20.58;100250.94;5105568;27;45304;-75
2022/04/21 13:02:21;;;;;;;;;8.50;8.00;;;;;26.70;20.09;100239.41;5095772;27;45545;-76
2022/04/21 13:04:48;;;;;;;;;7.00;7.00;;;;;26.89;20.54;100249.84;5103499;27;45617;-75
2022/04/21 13:07:13;;;;;;;;;7.50;7.00;;;;;27.21;20.37;100248.69;5094908;27;45455;-75
2022/04/21 13:09:38;;;;;;;;;10.00;8.75;;;;;27.33;20.00;100203.13;5102810;27;45377;-75
2022/04/21 13:12:04;;;;;;;;;11.50;9.75;;;;;28.04;19.97;100240.03;5095340;27;45974;-76
2022/04/21 13:14:30;;;;;;;;;14.75;13.25;;;;;28.59;18.97;100216.38;5104143;27;45555;-76
2022/04/21 13:16:56;;;;;;;;;13.25;7.50;;;;;29.27;18.72;100226.66;5115495;27;45468;-74
2022/04/21 13:19:22;;;;;;;;;7.25;5.75;;;;;29.94;18.60;100214.88;5115489;27;45305;-76
2022/04/21 13:21:53;;;;;;;;;10.50;10.50;;;;;30.61;17.73;100199.25;5116160;27;45271;-76
2022/04/21 13:24:19;;;;;;;;;9.25;8.00;;;;;31.06;17.50;100195.56;5112117;27;45475;-76
2022/04/21 13:26:45;;;;;;;;;10.25;10.25;;;;;31.66;16.43;100207.34;5101574;27;46276;-76
2022/04/21 13:29:10;;;;;;;;;9.25;9.25;;;;;32.08;16.74;100210.50;5111526;27;45444;-76
2022/04/21 13:34:20;;;;;;;;;4.00;4.00;;;;;32.78;15.82;100208.53;5095332;27;45540;-78
2022/04/21 13:36:45;;;;;;;;;12.25;12.00;;;;;33.16;15.71;100212.00;5094998;27;46208;-76
2022/04/21 13:39:11;;;;;;;;;12.00;10.00;;;;;33.66;15.13;100204.38;5081705;27;45411;-77
2022/04/21 13:41:37;;;;;;;;;11.50;9.75;;;;;33.87;14.52;100183.56;5116586;27;45480;-77
2022/04/21 13:44:02;;;;;;;;;10.25;9.00;;;;;34.12;14.58;100202.88;5115339;27;45524;-76
2022/04/21 13:46:31;;;;;;;;;8.25;8.00;;;;;34.26;14.90;100195.22;5086323;27;45917;-76
2022/04/21 13:48:56;;;;;;;;;5.50;5.50;;;;;34.47;14.37;100191.88;5096084;27;46250;-78
2022/04/21 13:51:23;;;;;;;;;8.75;7.00;;;;;34.73;14.29;100202.59;5102762;27;45356;-77
2022/04/21 13:53:48;;;;;;;;;9.00;8.00;;;;;34.98;14.98;100196.75;5100846;27;45522;-76
2022/04/21 13:56:14;;;;;;;;;7.00;7.00;;;;;35.15;14.30;100185.72;5115045;27;45575;-77
2022/04/21 13:58:39;;;;;;;;;6.00;6.00;;;;;35.26;14.14;100193.25;5115042;27;45451;-76
2022/04/21 14:01:04;;;;;;;;;7.00;7.00;;;;;35.23;14.06;100186.22;5114865;27;45357;-76
2022/04/21 14:03:36;;;;;;;;;9.00;7.25;;;;;35.04;14.10;100176.31;5115398;27;45327;-75
2022/04/21 14:06:04;;;;;;;;;9.50;8.00;;;;;35.07;14.01;100177.75;5096309;27;47352;-77
2022/04/21 14:08:31;;;;;;;;;9.50;9.25;;;;;34.92;14.36;100179.09;5115201;27;45290;-77
2022/04/21 14:10:57;;;;;;;;;6.00;6.00;;;;;34.90;14.75;100172.91;5114719;27;45396;-78
2022/04/21 14:13:22;;;;;;;;;5.75;5.75;;;;;34.96;14.33;100176.69;5114734;27;45240;-76
2022/04/21 14:15:47;;;;;;;;;8.00;7.00;;;;;34.81;14.50;100179.94;5114285;27;45337;-79
2022/04/21 14:18:13;;;;;;;;;7.50;7.00;;;;;34.65;14.30;100166.72;5114928;27;45235;-76
2022/04/21 14:20:38;;;;;;;;;8.00;6.75;;;;;34.70;15.07;100172.41;5114725;27;45373;-75
2022/04/21 14:23:04;;;;;;;;;8.25;6.00;;;;;34.63;14.93;100152.16;5114453;27;45372;-75
2022/04/21 14:25:29;;;;;;;;;6.00;5.00;;;;;34.60;14.66;100152.69;5114497;27;46001;-76
2022/04/21 14:27:54;;;;;;;;;9.25;7.50;;;;;34.61;14.72;100145.16;5108177;27;45287;-77
2022/04/21 14:30:20;;;;;;;;;10.25;8.50;;;;;34.64;14.92;100167.78;5108195;27;45471;-76
2022/04/21 14:32:45;;;;;;;;;8.00;5.75;;;;;34.47;14.63;100152.88;5114370;27;45454;-76
2022/04/21 14:35:10;;;;;;;;;4.50;4.50;;;;;34.58;14.93;100160.41;5095573;27;47637;-75
2022/04/21 14:45:47;;;;;;;;;4.00;4.00;;;;;34.28;14.94;100154.09;5107886;27;45841;-76
2022/04/21 14:48:13;;;;;;;;;5.00;5.00;;;;;34.17;14.63;100142.66;5114544;27;45377;-76
2022/04/21 14:50:39;;;;;;;;;8.50;7.25;;;;;34.13;15.06;100140.59;5114427;27;45339;-77
2022/04/21 14:53:05;;;;;;;;;6.25;6.25;;;;;34.03;15.12;100118.91;5113733;27;45578;-76
2022/04/21 14:55:32;;;;;;;;;3.50;3.50;;;;;34.18;15.79;100135.16;5106645;27;45616;-79
2022/04/21 14:57:57;;;;;;;;;6.00;4.00;;;;;33.89;15.41;100124.94;5098629;27;45388;-80
2022/04/21 15:00:23;;;;;;;;;6.25;6.25;;;;;33.76;15.79;100120.44;5115052;27;45476;-77
2022/04/21 15:02:48;;;;;;;;;4.75;4.50;;;;;33.69;16.34;100141.88;5114559;27;45408;-77
2022/04/21 15:05:14;;;;;;;;;7.00;4.50;;;;;33.48;16.45;100128.50;5115159;27;45391;-78
2022/04/21 15:07:39;;;;;;;;;5.00;5.00;;;;;33.33;16.33;100138.09;5114770;27;45350;-81
2022/04/21 15:10:05;;;;;;;;;7.75;7.00;;;;;33.26;16.13;100128.97;5115014;27;45281;-80
2022/04/21 15:12:31;;;;;;;;;6.75;5.00;;;;;33.23;16.29;100117.50;5114728;27;45354;-79
2022/04/21 15:14:56;;;;;;;;;5.00;4.50;;;;;33.27;16.06;100102.88;5114553;27;45437;-77
2022/04/21 15:17:22;;;;;;;;;4.25;4.25;;;;;33.27;16.35;100122.34;5117595;27;45373;-79
2022/04/21 15:19:48;;;;;;;;;4.00;4.00;;;;;33.11;16.63;100124.84;5115529;27;45834;-75
2022/04/21 15:22:15;;;;;;;;;6.25;4.25;;;;;32.85;16.82;100106.56;5114455;27;45314;-77
2022/04/21 15:24:42;;;;;;;;;4.50;4.50;;;;;32.72;17.22;100112.28;5113747;27;45305;-75
2022/04/21 15:27:07;;;;;;;;;5.25;4.50;;;;;32.62;16.88;100123.88;5112989;27;45378;-78
2022/04/21 15:29:33;;;;;;;;;4.75;4.75;;;;;32.45;17.85;100117.22;5102573;27;45568;-80
2022/04/21 15:31:59;;;;;;;;;4.50;4.50;;;;;32.51;17.24;100116.28;5095008;27;45539;-78
2022/04/21 15:34:24;;;;;;;;;6.25;6.25;;;;;32.26;17.20;100102.44;5098914;27;47684;-79
2022/04/21 15:36:50;;;;;;;;;6.75;5.25;;;;;32.21;17.74;100114.25;5117386;27;45420;-80
2022/04/21 15:39:15;;;;;;;;;4.25;3.75;;;;;32.02;17.69;100084.69;5117911;27;45539;-79
2022/04/21 15:41:40;;;;;;;;;6.00;4.00;;;;;32.15;17.51;100105.94;5085201;27;46155;-80
2022/04/21 15:44:06;;;;;;;;;4.75;3.50;;;;;31.93;17.72;100109.09;5098233;27;46084;-79
2022/04/21 15:46:31;;;;;;;;;4.50;3.00;;;;;31.83;18.01;100105.09;5116550;27;45524;-75
2022/04/21 15:48:57;;;;;;;;;2.00;2.00;;;;;31.74;18.12;100103.66;5117526;27;45326;-79
2022/04/21 15:51:26;;;;;;;;;4.25;4.25;;;;;31.67;18.34;100098.19;5104281;27;45300;-78
2022/04/21 15:59:19;;;;;;;;;4.00;4.00;;;;;31.32;18.73;100066.38;5117577;27;45456;-76
2022/04/21 16:01:47;;;;;;;;;5.00;3.25;;;;;31.48;18.38;100083.34;5116180;27;45467;-77
2022/04/21 16:04:13;;;;;;;;;4.00;4.00;;;;;31.39;18.66;100084.66;5105602;27;45472;-78
2022/04/21 16:06:38;;;;;;;;;3.50;3.00;;;;;31.30;18.69;100085.16;5115104;27;45845;-77
2022/04/21 16:09:03;;;;;;;;;3.00;3.00;;;;;31.11;19.33;100082.25;5117546;27;45535;-77
2022/04/21 16:11:29;;;;;;;;;4.25;3.00;;;;;30.96;19.25;100081.66;5112134;27;45315;-77
2022/04/21 16:13:55;;;;;;;;;2.75;2.75;;;;;30.74;19.26;100058.09;5096398;27;45466;-77
2022/04/21 16:16:23;;;;;;;;;3.00;3.00;;;;;30.63;19.26;100076.22;5109199;27;45358;-78
2022/04/21 16:18:49;;;;;;;;;1.75;1.75;;;;;30.40;19.60;100071.13;5117860;27;45339;-79
2022/04/21 16:21:15;;;;;;;;;6.25;6.25;;;;;30.34;19.61;100083.06;5117739;27;45237;-75
2022/04/21 16:23:41;;;;;;;;;5.00;5.00;;;;;30.31;19.85;100088.16;5118101;27;45515;-77
2022/04/21 16:26:07;;;;;;;;;5.25;2.75;;;;;30.28;20.35;100077.53;5117716;27;45394;-77
2022/04/21 16:28:32;;;;;;;;;3.25;3.25;;;;;30.30;20.58;100084.53;5087342;27;45378;-76
2022/04/21 16:30:58;;;;;;;;;4.00;3.00;;;;;30.07;20.40;100081.38;5116137;27;45362;-76
2022/04/21 16:33:23;;;;;;;;;2.00;2.00;;;;;29.92;20.54;100070.50;5118102;27;46085;-77
2022/04/21 16:35:49;;;;;;;;;2.75;2.75;;;;;29.77;20.41;100077.28;5118208;27;45299;-76
2022/04/21 16:38:14;;;;;;;;;2.00;2.00;;;;;29.65;20.09;100086.19;5117894;27;45728;-77
2022/04/21 16:40:39;;;;;;;;;2.00;1.75;;;;;29.40;20.69;100089.75;5116569;27;45382;-79
2022/04/21 16:43:06;;;;;;;;;2.00;2.00;;;;;29.21;20.94;100077.53;5117466;27;46084;-77